createdAt,value
2023-05-03T00:00:09.654Z,12.15
2023-05-03T00:03:00.927Z,11.50
2023-05-03T00:05:30.082Z,11.23
2023-05-03T00:07:58.727Z,10.65
2023-05-03T00:10:27.252Z,9.95
2023-05-03T00:12:56.821Z,9.90
2023-05-03T00:15:25.660Z,10.27
2023-05-03T00:17:54.040Z,9.70
2023-05-03T00:20:25.281Z,9.38
2023-05-03T00:22:53.494Z,10.43
2023-05-03T00:25:21.920Z,11.23
2023-05-03T00:27:50.221Z,11.05
2023-05-03T00:30:19.630Z,10.95
2023-05-03T00:32:47.934Z,10.77
2023-05-03T00:35:17.077Z,11.77
2023-05-03T00:37:47.139Z,10.35
2023-05-03T00:40:18.662Z,9.82
2023-05-03T00:42:47.487Z,10.52
2023-05-03T00:45:16.356Z,11.45
2023-05-03T00:47:45.080Z,11.75
2023-05-03T00:50:13.951Z,11.77
2023-05-03T00:52:43.130Z,11.65
2023-05-03T00:55:14.373Z,11.15
2023-05-03T00:57:42.785Z,10.90
2023-05-03T01:00:13.706Z,12.00
2023-05-03T01:02:42.058Z,12.30
2023-05-03T01:05:11.269Z,11.13
2023-05-03T01:07:53.230Z,10.43
2023-05-03T01:10:29.490Z,12.25
2023-05-03T01:13:05.872Z,11.43
2023-05-03T01:15:43.483Z,11.45
2023-05-03T01:18:16.285Z,11.48
2023-05-03T01:20:48.646Z,11.57
2023-05-03T01:23:23.716Z,12.25
2023-05-03T01:25:54.525Z,12.65
2023-05-03T01:28:23.160Z,13.27
2023-05-03T01:30:54.570Z,12.93
2023-05-03T01:33:29.807Z,13.52
2023-05-03T01:36:02.540Z,13.20
2023-05-03T01:38:34.944Z,13.23
2023-05-03T01:41:08.499Z,12.82
2023-05-03T01:43:37.635Z,11.80
2023-05-03T01:46:06.769Z,9.80
2023-05-03T01:48:35.414Z,9.68
2023-05-03T01:51:04.092Z,9.10
2023-05-03T01:53:32.630Z,8.57
2023-05-03T01:56:01.318Z,8.32
2023-05-03T01:58:31.126Z,8.30
2023-05-03T02:00:59.975Z,7.60
2023-05-03T02:03:28.376Z,8.27
2023-05-03T02:05:57.438Z,7.82
2023-05-03T02:08:25.865Z,8.20
2023-05-03T02:10:54.635Z,7.22
2023-05-03T02:13:23.169Z,7.47
2023-05-03T02:15:53.158Z,7.75
2023-05-03T02:18:22.583Z,9.40
2023-05-03T02:20:53.298Z,9.95
2023-05-03T02:23:21.818Z,9.25
2023-05-03T02:25:50.769Z,9.50
2023-05-03T02:28:19.316Z,8.80
2023-05-03T02:30:47.927Z,10.27
2023-05-03T02:33:17.814Z,9.70
2023-05-03T02:35:46.582Z,9.90
2023-05-03T02:38:15.113Z,10.02
2023-05-03T02:40:43.730Z,9.90
2023-05-03T02:43:12.093Z,9.75
2023-05-03T02:45:40.978Z,10.45
2023-05-03T02:48:09.807Z,11.02
2023-05-03T02:50:40.505Z,10.27
2023-05-03T02:53:08.925Z,9.25
2023-05-03T02:55:37.751Z,10.35
2023-05-03T02:58:06.125Z,10.68
2023-05-03T03:00:34.724Z,11.15
2023-05-03T03:03:03.566Z,12.07
2023-05-03T03:05:33.279Z,10.35
2023-05-03T03:08:03.904Z,12.23
2023-05-03T03:10:33.063Z,12.50
2023-05-03T03:13:01.613Z,12.85
2023-05-03T03:15:30.533Z,13.07
2023-05-03T03:17:59.061Z,14.38
2023-05-03T03:20:27.767Z,15.02
2023-05-03T03:22:56.236Z,14.32
2023-05-03T03:25:26.763Z,14.95
2023-05-03T03:27:55.056Z,15.07
2023-05-03T03:30:23.669Z,16.98
2023-05-03T03:32:52.070Z,16.50
2023-05-03T03:35:21.575Z,17.45
2023-05-03T03:37:49.950Z,17.17
2023-05-03T03:40:18.620Z,17.02
2023-05-03T03:42:48.280Z,17.92
2023-05-03T03:45:17.132Z,16.33
2023-05-03T03:47:45.618Z,16.92
2023-05-03T03:50:14.292Z,16.65
2023-05-03T03:52:42.774Z,17.17
2023-05-03T03:55:11.799Z,15.98
2023-05-03T03:57:40.266Z,14.98
2023-05-03T04:00:11.962Z,16.73
2023-05-03T04:05:09.784Z,16.40
2023-05-03T04:07:38.240Z,14.77
2023-05-03T04:10:07.787Z,15.15
2023-05-03T04:12:36.212Z,14.80
2023-05-03T04:15:06.264Z,14.88
2023-05-03T04:17:36.438Z,16.77
2023-05-03T04:20:07.280Z,18.17
2023-05-03T04:22:35.679Z,16.20
2023-05-03T04:25:04.842Z,16.20
2023-05-03T04:27:33.591Z,17.30
2023-05-03T04:30:03.566Z,17.02
2023-05-03T04:32:37.721Z,16.23
2023-05-03T04:35:10.781Z,15.88
2023-05-03T04:37:39.341Z,15.13
2023-05-03T04:40:09.880Z,14.60
2023-05-03T04:42:38.318Z,14.80
2023-05-03T04:45:09.969Z,15.35
2023-05-03T04:50:11.487Z,13.85
2023-05-03T04:52:39.870Z,13.00
2023-05-03T04:55:09.432Z,13.27
2023-05-03T04:57:37.733Z,12.63
2023-05-03T05:00:11.207Z,11.77
2023-05-03T05:02:39.693Z,11.75
2023-05-03T05:05:11.300Z,11.63
2023-05-03T05:07:39.703Z,10.60
2023-05-03T05:10:09.834Z,10.70
2023-05-03T05:12:38.292Z,9.75
2023-05-03T05:15:09.175Z,10.82
2023-05-03T05:17:37.726Z,11.05
2023-05-03T05:20:08.927Z,11.25
2023-05-03T05:22:38.542Z,12.15
2023-05-03T05:25:08.768Z,11.40
2023-05-03T05:27:37.514Z,10.85
2023-05-03T05:30:07.638Z,9.63
2023-05-03T05:32:36.053Z,9.82
2023-05-03T05:35:05.619Z,9.07
2023-05-03T05:37:33.930Z,7.82
2023-05-03T05:40:04.666Z,8.70
2023-05-03T05:42:33.320Z,7.78
2023-05-03T05:45:01.814Z,6.72
2023-05-03T05:47:30.461Z,7.60
2023-05-03T05:49:59.257Z,7.82
2023-05-03T05:52:27.564Z,7.35
2023-05-03T05:54:56.537Z,7.28
2023-05-03T05:57:26.077Z,7.28
2023-05-03T05:59:54.834Z,6.10
2023-05-03T06:02:25.051Z,6.63
2023-05-03T06:04:54.060Z,6.97
2023-05-03T06:07:22.726Z,6.93
2023-05-03T06:09:51.323Z,6.35
2023-05-03T06:12:19.550Z,6.25
2023-05-03T06:15:01.540Z,6.50
2023-05-03T06:17:31.815Z,6.53
2023-05-03T06:20:00.760Z,6.88
2023-05-03T06:22:33.898Z,6.65
2023-05-03T06:25:02.843Z,6.55
2023-05-03T06:27:31.278Z,6.00
2023-05-03T06:30:01.905Z,6.03
2023-05-03T06:32:30.941Z,6.13
2023-05-03T06:35:01.136Z,6.22
2023-05-03T06:37:29.441Z,6.90
2023-05-03T06:39:58.065Z,6.10
2023-05-03T06:42:26.459Z,5.90
2023-05-03T06:44:55.059Z,6.15
2023-05-03T06:47:24.995Z,5.80
2023-05-03T06:49:53.890Z,5.80
2023-05-03T06:52:22.153Z,5.82
2023-05-03T06:54:51.307Z,6.03
2023-05-03T06:57:23.035Z,5.60
2023-05-03T06:59:51.521Z,5.10
2023-05-03T07:02:21.540Z,5.55
2023-05-03T07:04:51.380Z,5.35
2023-05-03T07:07:19.913Z,5.80
2023-05-03T07:09:48.748Z,5.00
2023-05-03T07:12:17.615Z,5.40
2023-05-03T07:14:47.496Z,5.10
2023-05-03T07:17:15.954Z,5.18
2023-05-03T07:19:44.980Z,4.88
2023-05-03T07:22:14.563Z,4.82
2023-05-03T07:24:43.348Z,4.50
2023-05-03T07:27:11.604Z,5.60
2023-05-03T07:29:40.280Z,4.53
2023-05-03T07:32:09.483Z,5.00
2023-05-03T07:34:38.018Z,4.40
2023-05-03T07:37:06.872Z,4.00
2023-05-03T07:39:37.464Z,3.75
2023-05-03T07:42:06.400Z,3.50
2023-05-03T07:44:35.267Z,3.22
2023-05-03T07:47:04.359Z,3.53
2023-05-03T07:49:36.453Z,3.33
2023-05-03T07:52:04.960Z,3.55
2023-05-03T07:54:33.743Z,3.30
2023-05-03T07:57:03.912Z,3.40
2023-05-03T07:59:32.841Z,3.92
2023-05-03T08:02:01.832Z,3.67
2023-05-03T08:04:30.959Z,3.67
2023-05-03T08:07:02.222Z,4.40
2023-05-03T08:11:59.364Z,4.10
2023-05-03T08:14:29.181Z,3.83
2023-05-03T08:16:57.557Z,3.55
2023-05-03T08:19:26.166Z,4.10
2023-05-03T08:21:55.821Z,4.38
2023-05-03T08:24:24.642Z,3.80
2023-05-03T08:26:52.929Z,4.30
2023-05-03T08:29:22.941Z,4.40
2023-05-03T08:31:52.954Z,4.05
2023-05-03T08:34:21.654Z,3.97
2023-05-03T08:36:50.194Z,4.22
2023-05-03T08:39:19.169Z,3.78
2023-05-03T08:41:47.842Z,3.92
2023-05-03T08:44:22.994Z,3.65
2023-05-03T08:46:52.771Z,3.88
2023-05-03T08:49:22.699Z,4.00
2023-05-03T08:51:51.264Z,4.03
2023-05-03T08:54:21.463Z,4.47
2023-05-03T08:56:50.188Z,4.30
2023-05-03T08:59:18.734Z,4.10
2023-05-03T09:01:47.469Z,3.90
2023-05-03T09:04:18.200Z,3.80
2023-05-03T09:06:46.967Z,4.13
2023-05-03T09:09:16.373Z,4.47
2023-05-03T09:11:44.992Z,3.92
2023-05-03T09:14:15.994Z,4.20
2023-05-03T09:16:47.459Z,4.57
2023-05-03T09:19:18.187Z,4.47
2023-05-03T09:21:48.214Z,4.35
2023-05-03T09:24:18.790Z,4.10
2023-05-03T09:26:48.467Z,3.90
2023-05-03T09:29:31.769Z,3.97
2023-05-03T09:32:01.144Z,3.92
2023-05-03T09:34:32.168Z,4.18
2023-05-03T09:37:01.083Z,3.70
2023-05-03T09:39:29.683Z,4.55
2023-05-03T09:41:58.185Z,4.03
2023-05-03T09:44:42.118Z,3.63
2023-05-03T09:47:11.378Z,4.13
2023-05-03T09:49:41.311Z,3.55
2023-05-03T09:52:09.928Z,4.20
2023-05-03T09:54:38.946Z,4.28
2023-05-03T09:57:08.727Z,4.10
2023-05-03T09:59:40.206Z,4.18
2023-05-03T10:02:09.525Z,4.30
2023-05-03T10:04:45.703Z,3.80
2023-05-03T10:07:16.152Z,4.50
2023-05-03T10:09:46.122Z,4.50
2023-05-03T10:12:17.577Z,4.85
2023-05-03T10:14:48.095Z,5.00
2023-05-03T10:17:19.141Z,4.65
2023-05-03T10:25:10.966Z,4.75
2023-05-03T10:27:43.111Z,4.95
2023-05-03T10:30:29.389Z,5.05
2023-05-03T10:32:57.772Z,5.18
2023-05-03T10:35:31.461Z,4.25
2023-05-03T10:38:00.218Z,4.40
2023-05-03T10:40:43.236Z,4.97
2023-05-03T10:43:48.280Z,4.90
2023-05-03T10:46:36.547Z,4.40
2023-05-03T10:49:19.279Z,5.50
2023-05-03T10:51:49.555Z,4.55
2023-05-03T10:54:19.648Z,4.68
2023-05-03T10:56:56.864Z,4.55
2023-05-03T10:59:26.070Z,4.60
2023-05-03T11:01:55.229Z,4.60
2023-05-03T11:04:34.889Z,5.50
2023-05-03T11:07:05.278Z,4.78
2023-05-03T11:09:34.981Z,4.82
2023-05-03T11:12:08.755Z,4.70
2023-05-03T11:14:39.891Z,4.50
2023-05-03T11:17:08.576Z,4.90
2023-05-03T11:19:38.116Z,5.00
2023-05-03T11:22:08.296Z,4.90
2023-05-03T11:24:36.883Z,5.18
2023-05-03T11:27:08.233Z,4.32
2023-05-03T11:32:10.777Z,4.70
2023-05-03T11:34:40.490Z,4.97
2023-05-03T11:37:11.739Z,4.78
2023-05-03T11:39:40.026Z,5.30
2023-05-03T11:42:08.591Z,4.32
2023-05-03T11:44:37.817Z,4.70
2023-05-03T11:47:07.399Z,4.05
2023-05-03T11:49:36.377Z,3.85
2023-05-03T11:52:05.520Z,4.50
2023-05-03T11:54:35.743Z,4.88
2023-05-03T11:57:13.513Z,4.03
2023-05-03T11:59:42.807Z,4.70
2023-05-03T12:02:14.007Z,4.82
2023-05-03T12:07:18.866Z,4.57
2023-05-03T12:10:01.146Z,4.45
2023-05-03T12:12:43.579Z,5.05
2023-05-03T12:15:16.345Z,4.82
2023-05-03T12:17:49.394Z,5.07
2023-05-03T12:22:56.656Z,5.28
2023-05-03T12:25:32.948Z,5.00
2023-05-03T12:28:17.881Z,5.40
2023-05-03T12:30:48.797Z,5.47
2023-05-03T12:33:22.052Z,5.32
2023-05-03T12:35:53.935Z,5.32
2023-05-03T12:38:24.616Z,5.15
2023-05-03T12:40:55.661Z,5.25
2023-05-03T12:43:24.600Z,4.30
2023-05-03T12:46:16.594Z,4.05
2023-05-03T12:48:46.220Z,4.00
2023-05-03T12:53:48.100Z,4.15
2023-05-03T12:56:23.798Z,3.88
2023-05-03T12:59:14.990Z,3.72
2023-05-03T13:11:50.236Z,4.90
2023-05-03T13:16:47.720Z,4.25
2023-05-03T13:19:17.553Z,4.60
2023-05-03T13:21:48.737Z,9.18
2023-05-03T13:24:17.823Z,4.68
2023-05-03T13:26:46.601Z,4.25
2023-05-03T13:29:17.605Z,4.70
2023-05-03T13:31:45.933Z,4.95
2023-05-03T13:34:16.172Z,4.25
2023-05-03T13:36:44.351Z,4.53
2023-05-03T13:39:13.152Z,4.28
2023-05-03T13:41:42.289Z,4.57
2023-05-03T13:44:11.760Z,6.22
2023-05-03T13:46:43.494Z,3.92
2023-05-03T13:49:12.201Z,3.95
2023-05-03T13:51:40.957Z,4.25
2023-05-03T13:54:09.756Z,4.78
2023-05-03T13:56:38.110Z,14.55
2023-05-03T13:59:09.706Z,5.47
2023-05-03T14:01:38.707Z,5.13
2023-05-03T14:04:10.360Z,9.82
2023-05-03T14:06:41.178Z,9.80
2023-05-03T14:09:11.203Z,8.20
2023-05-03T14:11:41.742Z,4.97
2023-05-03T14:14:10.465Z,4.53
2023-05-03T14:16:41.862Z,4.05
2023-05-03T14:19:12.609Z,11.80
2023-05-03T14:21:43.376Z,8.57
2023-05-03T14:24:12.880Z,7.28
2023-05-03T14:26:41.249Z,4.13
2023-05-03T14:29:10.301Z,3.15
2023-05-03T14:31:38.615Z,3.05
2023-05-03T14:34:08.483Z,3.33
2023-05-03T14:36:44.153Z,3.50
2023-05-03T14:39:14.561Z,3.30
2023-05-03T14:41:46.349Z,4.00
2023-05-03T14:44:15.057Z,3.08
2023-05-03T14:46:43.518Z,3.30
2023-05-03T14:49:12.814Z,11.50
2023-05-03T14:51:44.203Z,16.67
2023-05-03T14:54:13.147Z,19.83
2023-05-03T14:56:41.411Z,5.90
2023-05-03T14:59:10.287Z,6.45
2023-05-03T15:01:38.564Z,5.50
2023-05-03T15:04:07.842Z,3.80
2023-05-03T15:06:39.261Z,2.85
2023-05-03T15:09:09.461Z,3.38
2023-05-03T15:11:37.849Z,3.90
2023-05-03T15:14:07.120Z,7.28
2023-05-03T15:16:37.162Z,5.53
2023-05-03T15:19:07.552Z,3.65
2023-05-03T15:21:46.510Z,3.25
2023-05-03T15:24:16.829Z,2.40
2023-05-03T15:26:45.126Z,2.40
2023-05-03T15:29:13.717Z,2.60
2023-05-03T15:31:42.975Z,2.38
2023-05-03T15:34:12.645Z,2.40
2023-05-03T15:36:41.763Z,2.50
2023-05-03T15:39:10.560Z,2.47
2023-05-03T15:41:40.393Z,2.00
2023-05-03T15:44:10.027Z,2.50
2023-05-03T15:46:40.184Z,2.45
2023-05-03T15:49:11.621Z,2.50
2023-05-03T15:51:40.500Z,2.10
2023-05-03T15:54:09.293Z,2.78
2023-05-03T15:56:38.952Z,3.25
2023-05-03T15:59:10.429Z,3.15
2023-05-03T16:01:38.778Z,3.13
2023-05-03T16:04:07.986Z,2.20
2023-05-03T16:06:36.391Z,2.40
2023-05-03T16:09:06.740Z,2.80
2023-05-03T16:11:35.865Z,2.83
2023-05-03T16:14:09.404Z,2.70
2023-05-03T16:16:40.365Z,2.40
2023-05-03T16:19:09.461Z,2.20
2023-05-03T16:21:37.744Z,3.03
2023-05-03T16:24:07.592Z,3.03
2023-05-03T16:26:36.568Z,2.90
2023-05-03T16:29:05.757Z,2.70
2023-05-03T16:31:34.254Z,2.65
2023-05-03T16:34:04.524Z,2.58
2023-05-03T16:36:33.906Z,3.10
2023-05-03T16:39:02.522Z,2.65
2023-05-03T16:41:31.213Z,2.70
2023-05-03T16:44:05.056Z,2.83
2023-05-03T16:46:35.171Z,2.42
2023-05-03T16:49:05.311Z,2.57
2023-05-03T16:51:33.899Z,2.53
2023-05-03T16:54:04.433Z,2.30
2023-05-03T16:56:33.168Z,5.97
2023-05-03T16:59:03.114Z,20.88
2023-05-03T17:01:31.296Z,20.92
2023-05-03T17:04:00.040Z,14.85
2023-05-03T17:06:30.085Z,5.57
2023-05-03T17:08:58.723Z,3.13
2023-05-03T17:11:27.467Z,6.47
2023-05-03T17:13:56.132Z,3.90
2023-05-03T17:16:24.827Z,3.50
2023-05-03T17:18:53.498Z,3.15
2023-05-03T17:21:21.797Z,2.95
2023-05-03T17:23:51.774Z,2.70
2023-05-03T17:26:21.397Z,2.45
2023-05-03T17:28:50.150Z,2.15
2023-05-03T17:31:18.378Z,2.53
2023-05-03T17:33:47.058Z,2.80
2023-05-03T17:36:15.398Z,2.35
2023-05-03T17:38:43.867Z,3.83
2023-05-03T17:41:13.787Z,3.22
2023-05-03T17:43:42.880Z,2.47
2023-05-03T17:46:14.608Z,3.25
2023-05-03T17:48:44.302Z,2.70
2023-05-03T17:51:13.683Z,2.88
2023-05-03T17:53:43.577Z,2.58
2023-05-03T17:56:16.577Z,2.70
2023-05-03T17:58:46.758Z,2.58
2023-05-03T18:01:16.004Z,2.65
2023-05-03T18:03:44.724Z,2.90
2023-05-03T18:06:14.291Z,2.90
2023-05-03T18:08:43.612Z,2.42
2023-05-03T18:11:12.041Z,2.67
2023-05-03T18:13:41.999Z,2.65
2023-05-03T18:16:10.734Z,2.88
2023-05-03T18:18:39.562Z,3.00
2023-05-03T18:21:08.249Z,2.33
2023-05-03T18:23:36.936Z,2.88
2023-05-03T18:26:05.479Z,3.30
2023-05-03T18:28:34.938Z,2.85
2023-05-03T18:31:05.063Z,3.28
2023-05-03T18:33:33.789Z,6.45
2023-05-03T18:36:03.248Z,20.48
2023-05-03T18:38:31.797Z,6.18
2023-05-03T18:41:00.053Z,6.85
2023-05-03T18:43:28.690Z,12.48
2023-05-03T18:45:57.033Z,7.68
2023-05-03T18:48:27.102Z,5.55
2023-05-03T18:50:55.396Z,4.93
2023-05-03T18:53:24.293Z,4.00
2023-05-03T18:55:52.692Z,4.90
2023-05-03T18:58:21.172Z,4.28
2023-05-03T19:00:49.706Z,4.78
2023-05-03T19:03:18.330Z,5.18
2023-05-03T19:05:48.041Z,8.20
2023-05-03T19:08:16.594Z,8.25
2023-05-03T19:10:44.784Z,8.93
2023-05-03T19:13:15.118Z,10.52
2023-05-03T19:15:43.961Z,10.82
2023-05-03T19:18:14.841Z,9.82
2023-05-03T19:20:45.390Z,11.52
2023-05-03T19:23:15.588Z,10.43
2023-05-03T19:25:44.090Z,11.15
2023-05-03T19:28:12.743Z,12.23
2023-05-03T19:30:45.435Z,9.23
2023-05-03T19:33:14.327Z,8.82
2023-05-03T19:35:42.544Z,9.68
2023-05-03T19:38:11.240Z,10.30
2023-05-03T19:40:41.575Z,10.77
2023-05-03T19:43:10.176Z,14.27
2023-05-03T19:45:43.087Z,14.35
2023-05-03T19:48:12.860Z,13.75
2023-05-03T19:50:43.225Z,14.07
2023-05-03T19:53:12.205Z,13.30
2023-05-03T19:55:42.269Z,13.50
2023-05-03T19:58:11.114Z,11.52
2023-05-03T20:00:39.816Z,13.27
2023-05-03T20:03:08.722Z,12.93
2023-05-03T20:05:37.651Z,13.23
2023-05-03T20:08:06.554Z,13.10
2023-05-03T20:10:36.524Z,12.02
2023-05-03T20:13:07.346Z,10.30
2023-05-03T20:15:37.395Z,10.05
2023-05-03T20:18:06.315Z,9.90
2023-05-03T20:20:34.851Z,9.13
2023-05-03T20:23:03.448Z,14.88
2023-05-03T20:25:31.900Z,11.57
2023-05-03T20:28:00.519Z,11.13
2023-05-03T20:30:31.778Z,19.30
2023-05-03T20:33:00.667Z,23.15
2023-05-03T20:35:28.941Z,24.25
2023-05-03T20:37:57.582Z,17.90
2023-05-03T20:40:25.905Z,19.20
2023-05-03T20:42:54.503Z,16.33
2023-05-03T20:45:23.149Z,14.70
2023-05-03T20:47:53.322Z,14.73
2023-05-03T20:50:22.267Z,15.68
2023-05-03T20:52:50.892Z,17.95
2023-05-03T20:55:19.434Z,14.45
2023-05-03T20:57:47.929Z,11.10
2023-05-03T21:00:16.790Z,11.98
2023-05-03T21:02:46.655Z,11.57
2023-05-03T21:05:16.297Z,10.70
2023-05-03T21:07:44.841Z,11.23
2023-05-03T21:10:13.130Z,10.32
2023-05-03T21:12:41.832Z,11.27
2023-05-03T21:15:11.494Z,10.52
2023-05-03T21:17:40.092Z,10.18
2023-05-03T21:20:10.714Z,11.05
2023-05-03T21:22:40.952Z,13.02
2023-05-03T21:25:11.719Z,13.80
2023-05-03T21:27:41.121Z,16.52
2023-05-03T21:30:10.939Z,17.55
2023-05-03T21:32:40.017Z,15.73
2023-05-03T21:35:09.927Z,16.00
2023-05-03T21:37:40.124Z,14.82
2023-05-03T21:40:10.299Z,18.63
2023-05-03T21:42:39.021Z,15.70
2023-05-03T21:45:08.686Z,16.58
2023-05-03T21:47:38.601Z,16.90
2023-05-03T21:50:08.149Z,15.90
2023-05-03T21:52:38.429Z,16.05
2023-05-03T21:55:09.499Z,15.73
2023-05-03T21:57:39.061Z,15.63
2023-05-03T22:00:14.156Z,14.52
2023-05-03T22:02:43.154Z,16.33
2023-05-03T22:05:11.926Z,14.30
2023-05-03T22:07:43.977Z,13.88
2023-05-03T22:10:13.938Z,14.13
2023-05-03T22:12:43.632Z,13.35
2023-05-03T22:15:13.272Z,12.18
2023-05-03T22:17:41.928Z,11.98
2023-05-03T22:20:11.778Z,11.40
2023-05-03T22:22:41.896Z,11.88
2023-05-03T22:25:11.051Z,13.70
2023-05-03T22:27:40.939Z,13.13
2023-05-03T22:30:10.560Z,13.48
2023-05-03T22:32:39.193Z,12.75
2023-05-03T22:35:09.433Z,12.52
2023-05-03T22:37:38.672Z,12.27
2023-05-03T22:40:09.407Z,11.70
2023-05-03T22:42:38.117Z,10.95
2023-05-03T22:45:09.336Z,12.20
2023-05-03T22:47:38.111Z,11.02
2023-05-03T22:50:07.837Z,11.20
2023-05-03T22:52:36.442Z,11.68
2023-05-03T22:55:05.016Z,11.60
2023-05-03T22:57:33.630Z,10.25
2023-05-03T23:00:02.396Z,10.80
2023-05-03T23:02:32.723Z,11.43
2023-05-03T23:05:01.216Z,10.45
2023-05-03T23:07:29.911Z,10.02
2023-05-03T23:10:02.814Z,10.07
2023-05-03T23:12:32.026Z,10.63
2023-05-03T23:15:00.524Z,11.05
2023-05-03T23:17:32.112Z,10.38
2023-05-03T23:20:00.493Z,10.43
2023-05-03T23:22:29.408Z,11.02
2023-05-03T23:24:57.772Z,11.27
2023-05-03T23:27:26.398Z,11.00
2023-05-03T23:29:56.465Z,11.18
2023-05-03T23:32:25.736Z,9.95
2023-05-03T23:34:55.986Z,10.75
2023-05-03T23:37:24.499Z,10.85
2023-05-03T23:39:53.679Z,10.80
2023-05-03T23:42:22.490Z,12.07
2023-05-03T23:44:55.302Z,11.52
2023-05-03T23:47:24.786Z,11.18
2023-05-03T23:49:53.425Z,11.30
2023-05-03T23:52:23.615Z,11.13
2023-05-03T23:54:53.546Z,10.70
2023-05-03T23:57:22.239Z,9.90
2023-05-03T23:59:50.746Z,10.60
